createdAt,value
2019-02-18T00:00:47.023Z,189.53
2019-02-18T00:03:32.128Z,171.13
2019-02-18T00:06:17.319Z,160.60
2019-02-18T00:09:04.560Z,162.20
2019-02-18T00:11:50.803Z,237.20
2019-02-18T00:14:36.143Z,187.43
2019-02-18T00:17:21.309Z,130.40
2019-02-18T00:20:06.606Z,223.80
2019-02-18T00:22:51.880Z,199.20
2019-02-18T00:25:36.943Z,237.80
2019-02-18T00:28:22.150Z,218.03
2019-02-18T00:31:07.470Z,190.47
2019-02-18T00:33:52.512Z,200.37
2019-02-18T00:36:38.773Z,216.63
2019-02-18T00:39:23.620Z,193.30
2019-02-18T00:42:08.788Z,159.03
2019-02-18T00:44:53.932Z,134.27
2019-02-18T00:47:40.180Z,115.77
2019-02-18T00:50:25.588Z,121.77
2019-02-18T00:53:10.710Z,124.50
2019-02-18T00:55:56.077Z,133.80
2019-02-18T00:58:41.123Z,145.27
2019-02-18T01:01:26.499Z,136.23
2019-02-18T01:04:11.854Z,110.70
2019-02-18T01:06:57.131Z,105.33
2019-02-18T01:09:42.639Z,124.73
2019-02-18T01:12:27.871Z,124.73
2019-02-18T01:15:13.435Z,127.57
2019-02-18T01:17:58.664Z,123.27
2019-02-18T01:20:43.878Z,132.07
2019-02-18T01:23:29.211Z,122.33
2019-02-18T01:26:14.231Z,137.73
2019-02-18T01:28:59.352Z,141.83
2019-02-18T01:31:44.396Z,131.70
2019-02-18T01:34:29.518Z,117.77
2019-02-18T01:37:14.768Z,111.50
2019-02-18T01:39:59.901Z,117.10
2019-02-18T01:42:45.253Z,131.03
2019-02-18T01:45:30.795Z,121.30
2019-02-18T01:48:17.995Z,123.67
2019-02-18T01:51:03.314Z,127.20
2019-02-18T01:53:48.492Z,142.17
2019-02-18T01:56:34.872Z,141.97
2019-02-18T01:59:20.451Z,139.97
2019-02-18T02:02:05.214Z,151.40
2019-02-18T02:04:50.513Z,148.03
2019-02-18T02:07:35.765Z,151.07
2019-02-18T02:10:21.219Z,141.37
2019-02-18T02:13:26.746Z,133.43
2019-02-18T02:16:12.113Z,136.23
2019-02-18T02:18:57.370Z,122.17
2019-02-18T02:21:42.614Z,120.23
2019-02-18T02:24:27.859Z,127.90
2019-02-18T02:27:13.434Z,140.40
2019-02-18T02:29:58.168Z,158.37
2019-02-18T02:32:43.515Z,139.27
2019-02-18T02:35:28.922Z,128.80
2019-02-18T02:38:14.319Z,106.60
2019-02-18T02:40:59.511Z,98.50
2019-02-18T02:43:44.933Z,106.13
2019-02-18T02:46:30.108Z,97.40
2019-02-18T02:49:14.956Z,95.17
2019-02-18T02:52:00.185Z,91.83
2019-02-18T02:54:45.565Z,87.40
2019-02-18T02:57:32.347Z,95.07
2019-02-18T03:00:17.386Z,97.53
2019-02-18T03:03:04.174Z,86.13
2019-02-18T03:05:49.907Z,78.73
2019-02-18T03:09:08.096Z,84.70
2019-02-18T03:11:53.220Z,98.10
2019-02-18T03:14:38.430Z,98.67
2019-02-18T03:17:23.852Z,103.07
2019-02-18T03:20:09.860Z,115.77
2019-02-18T03:22:55.702Z,107.47
2019-02-18T03:25:43.132Z,79.77
2019-02-18T03:28:31.936Z,79.40
2019-02-18T03:31:23.240Z,82.40
2019-02-18T03:34:14.817Z,77.63
2019-02-18T03:37:01.422Z,77.73
2019-02-18T03:39:46.656Z,77.03
2019-02-18T03:42:32.123Z,76.03
2019-02-18T03:45:17.423Z,86.13
2019-02-18T03:48:02.787Z,77.93
2019-02-18T03:50:48.099Z,81.47
2019-02-18T03:53:33.363Z,82.20
2019-02-18T03:56:18.502Z,81.97
2019-02-18T03:59:03.794Z,87.10
2019-02-18T04:01:50.317Z,86.77
2019-02-18T04:04:35.297Z,88.03
2019-02-18T04:07:22.578Z,83.77
2019-02-18T04:10:09.571Z,76.87
2019-02-18T04:12:54.881Z,88.73
2019-02-18T04:15:40.165Z,86.43
2019-02-18T04:18:25.200Z,90.47
2019-02-18T04:21:10.412Z,95.93
2019-02-18T04:23:57.710Z,111.63
2019-02-18T04:26:42.762Z,125.53
2019-02-18T04:29:28.994Z,192.27
2019-02-18T04:32:15.339Z,186.30
2019-02-18T04:35:00.499Z,148.50
2019-02-18T04:37:46.040Z,146.03
2019-02-18T04:40:31.218Z,135.03
2019-02-18T04:43:16.518Z,107.43
2019-02-18T04:46:03.713Z,128.87
2019-02-18T04:48:48.751Z,123.67
2019-02-18T04:51:33.621Z,121.77
2019-02-18T04:54:18.884Z,160.00
2019-02-18T04:57:04.357Z,208.23
2019-02-18T04:59:49.514Z,170.97
2019-02-18T05:02:34.832Z,129.43
2019-02-18T05:05:20.062Z,112.07
2019-02-18T05:08:05.327Z,129.57
2019-02-18T05:10:50.727Z,110.40
2019-02-18T05:13:36.110Z,122.57
2019-02-18T05:16:21.280Z,101.87
2019-02-18T05:19:06.471Z,112.87
2019-02-18T05:21:51.306Z,137.10
2019-02-18T05:24:37.130Z,108.17
2019-02-18T05:27:32.809Z,138.20
2019-02-18T05:30:10.592Z,186.47
2019-02-18T05:32:55.477Z,125.10
2019-02-18T05:35:40.691Z,119.83
2019-02-18T05:38:26.044Z,144.93
2019-02-18T05:41:11.500Z,112.03
2019-02-18T05:43:56.221Z,221.00
2019-02-18T05:46:41.495Z,170.07
2019-02-18T05:49:27.027Z,173.83
2019-02-18T05:52:12.096Z,155.03
2019-02-18T05:54:57.165Z,114.57
2019-02-18T05:57:42.279Z,124.40
2019-02-18T06:00:27.495Z,128.67
2019-02-18T06:03:12.366Z,126.17
2019-02-18T06:05:57.681Z,186.07
2019-02-18T06:08:43.052Z,173.07
2019-02-18T06:11:29.285Z,136.10
2019-02-18T06:14:14.313Z,135.33
2019-02-18T06:16:59.325Z,117.73
2019-02-18T06:19:45.005Z,107.50
2019-02-18T06:22:31.811Z,115.33
2019-02-18T06:25:17.238Z,131.10
2019-02-18T06:28:04.880Z,100.83
2019-02-18T06:30:49.058Z,146.10
2019-02-18T06:33:33.892Z,101.47
2019-02-18T06:36:19.281Z,177.67
2019-02-18T06:39:05.585Z,101.10
2019-02-18T06:41:51.148Z,95.77
2019-02-18T06:44:37.737Z,146.67
2019-02-18T06:47:22.708Z,115.27
2019-02-18T06:50:08.520Z,150.33
2019-02-18T06:52:53.984Z,173.20
2019-02-18T06:55:39.179Z,102.70
2019-02-18T06:58:26.659Z,142.47
2019-02-18T07:01:31.657Z,88.63
2019-02-18T07:04:21.337Z,110.93
2019-02-18T07:07:08.499Z,145.20
2019-02-18T07:09:58.571Z,151.67
2019-02-18T07:12:46.705Z,181.00
2019-02-18T07:15:32.080Z,176.80
2019-02-18T07:18:17.567Z,171.03
2019-02-18T07:21:02.978Z,188.87
2019-02-18T07:23:48.979Z,178.83
2019-02-18T07:26:34.667Z,136.80
2019-02-18T07:29:20.035Z,125.30
2019-02-18T07:32:05.413Z,127.27
2019-02-18T07:34:50.700Z,123.73
2019-02-18T07:37:38.045Z,112.40
2019-02-18T07:40:26.046Z,118.23
2019-02-18T07:43:11.024Z,111.63
2019-02-18T07:45:57.384Z,147.70
2019-02-18T07:48:42.456Z,170.20
2019-02-18T07:51:27.436Z,159.07
2019-02-18T07:54:12.969Z,137.00
2019-02-18T07:56:58.335Z,135.63
2019-02-18T07:59:43.733Z,127.80
2019-02-18T08:02:29.002Z,119.37
2019-02-18T08:05:14.924Z,124.63
2019-02-18T08:07:59.943Z,134.33
2019-02-18T08:10:44.887Z,164.20
2019-02-18T08:13:30.005Z,125.87
2019-02-18T08:16:15.113Z,151.10
2019-02-18T08:19:00.062Z,149.77
2019-02-18T08:21:45.174Z,141.87
2019-02-18T08:24:29.958Z,136.93
2019-02-18T08:27:15.436Z,120.13
2019-02-18T08:30:00.742Z,146.30
2019-02-18T08:32:46.251Z,141.77
2019-02-18T08:35:31.396Z,149.10
2019-02-18T08:38:16.564Z,148.90
2019-02-18T08:41:01.832Z,149.03
2019-02-18T08:43:47.761Z,143.70
2019-02-18T08:46:33.010Z,143.97
2019-02-18T08:49:20.257Z,150.73
2019-02-18T08:52:05.174Z,152.60
2019-02-18T08:54:56.554Z,157.20
2019-02-18T08:57:37.524Z,165.17
2019-02-18T09:00:22.685Z,177.23
2019-02-18T09:03:08.178Z,177.90
2019-02-18T09:05:54.186Z,157.03
2019-02-18T09:08:39.185Z,160.30
2019-02-18T09:11:24.681Z,172.63
2019-02-18T09:14:42.299Z,165.63
2019-02-18T09:17:31.487Z,167.93
2019-02-18T09:20:17.000Z,156.40
2019-02-18T09:23:18.622Z,161.13
2019-02-18T09:26:03.568Z,139.83
2019-02-18T09:28:48.923Z,138.77
2019-02-18T09:31:35.497Z,129.73
2019-02-18T09:34:20.924Z,127.37
2019-02-18T09:37:06.495Z,129.97
2019-02-18T09:39:52.312Z,126.30
2019-02-18T09:42:37.898Z,118.57
2019-02-18T09:45:22.731Z,122.33
2019-02-18T09:48:08.120Z,127.50
2019-02-18T09:50:53.204Z,115.70
2019-02-18T09:53:38.200Z,132.80
2019-02-18T09:56:23.811Z,120.43
2019-02-18T09:59:08.703Z,138.47
2019-02-18T10:01:54.080Z,133.10
2019-02-18T10:04:39.134Z,128.13
2019-02-18T10:07:24.321Z,115.73
2019-02-18T10:10:09.834Z,106.23
2019-02-18T10:12:54.981Z,105.47
2019-02-18T10:15:40.159Z,115.20
2019-02-18T10:18:25.380Z,106.37
2019-02-18T10:21:10.507Z,103.40
2019-02-18T10:23:55.979Z,98.83
2019-02-18T10:26:41.355Z,98.43
2019-02-18T10:29:26.462Z,104.97
2019-02-18T10:32:12.745Z,104.03
2019-02-18T10:34:57.965Z,114.70
2019-02-18T10:37:43.092Z,112.30
2019-02-18T10:40:28.341Z,109.30
2019-02-18T10:43:13.538Z,103.33
2019-02-18T10:46:00.042Z,102.93
2019-02-18T10:48:46.724Z,101.77
2019-02-18T10:51:31.880Z,86.97
2019-02-18T10:54:17.888Z,92.93
2019-02-18T10:57:03.273Z,84.27
2019-02-18T10:59:49.431Z,90.33
2019-02-18T11:02:35.060Z,91.07
2019-02-18T11:05:20.453Z,87.17
2019-02-18T11:08:05.975Z,81.87
2019-02-18T11:10:51.100Z,84.73
2019-02-18T11:13:37.351Z,98.87
2019-02-18T11:16:23.033Z,81.93
2019-02-18T11:19:08.814Z,81.97
2019-02-18T11:21:54.565Z,86.17
2019-02-18T11:24:39.789Z,89.73
2019-02-18T11:27:24.964Z,91.43
2019-02-18T11:30:13.606Z,84.97
2019-02-18T11:32:59.670Z,92.40
2019-02-18T11:35:45.061Z,85.60
2019-02-18T11:38:30.372Z,87.13
2019-02-18T11:41:15.294Z,89.23
2019-02-18T11:44:00.583Z,85.33
2019-02-18T11:46:45.918Z,87.30
2019-02-18T11:49:31.258Z,84.10
2019-02-18T11:52:17.206Z,95.43
2019-02-18T11:55:06.546Z,90.20
2019-02-18T11:57:51.541Z,88.27
2019-02-18T12:00:37.368Z,95.03
2019-02-18T12:03:22.596Z,89.20
2019-02-18T12:06:07.825Z,83.90
2019-02-18T12:08:54.221Z,91.27
2019-02-18T12:11:39.437Z,87.33
2019-02-18T12:14:24.548Z,89.37
2019-02-18T12:17:20.086Z,91.07
2019-02-18T12:19:56.746Z,93.27
2019-02-18T12:22:42.673Z,88.33
2019-02-18T12:25:27.888Z,90.43
2019-02-18T12:28:14.959Z,96.53
2019-02-18T12:31:00.319Z,87.87
2019-02-18T12:33:52.063Z,89.03
2019-02-18T12:36:36.856Z,82.60
2019-02-18T12:39:22.742Z,92.07
2019-02-18T12:42:08.717Z,90.80
2019-02-18T12:44:54.144Z,89.83
2019-02-18T12:47:39.735Z,94.67
2019-02-18T12:50:25.083Z,94.77
2019-02-18T12:53:10.383Z,88.77
2019-02-18T12:55:55.568Z,87.70
2019-02-18T12:58:40.761Z,91.17
2019-02-18T13:01:27.823Z,86.90
2019-02-18T13:04:13.543Z,92.60
2019-02-18T13:06:58.721Z,85.13
2019-02-18T13:09:44.182Z,86.37
2019-02-18T13:12:29.385Z,93.37
2019-02-18T13:15:16.330Z,86.03
2019-02-18T13:20:47.997Z,88.00
2019-02-18T13:23:33.063Z,85.00
2019-02-18T13:26:18.352Z,81.43
2019-02-18T13:29:03.663Z,80.03
2019-02-18T13:31:51.090Z,83.23
2019-02-18T13:34:36.136Z,86.27
2019-02-18T13:37:24.387Z,82.67
2019-02-18T13:40:13.129Z,77.83
2019-02-18T13:43:03.367Z,82.73
2019-02-18T13:45:48.446Z,77.57
2019-02-18T13:48:33.459Z,76.70
2019-02-18T13:51:24.075Z,76.33
2019-02-18T13:54:05.838Z,81.90
2019-02-18T13:56:53.133Z,80.67
2019-02-18T13:59:38.665Z,78.97
2019-02-18T14:02:23.715Z,81.80
2019-02-18T14:05:12.165Z,83.17
2019-02-18T14:07:57.271Z,78.17
2019-02-18T14:10:45.593Z,84.90
2019-02-18T14:13:30.546Z,87.97
2019-02-18T14:16:17.335Z,81.10
2019-02-18T14:19:03.547Z,84.37
2019-02-18T14:21:49.039Z,83.97
2019-02-18T14:24:34.231Z,86.80
2019-02-18T14:27:19.516Z,85.87
2019-02-18T14:30:14.853Z,82.43
2019-02-18T14:33:00.711Z,80.33
2019-02-18T14:35:45.699Z,81.23
2019-02-18T14:38:31.144Z,85.20
2019-02-18T14:41:22.596Z,76.60
2019-02-18T14:44:07.984Z,84.50
2019-02-18T14:46:53.015Z,87.20
2019-02-18T14:49:39.878Z,85.43
2019-02-18T14:52:25.691Z,86.50
2019-02-18T14:55:12.951Z,90.47
2019-02-18T14:57:57.978Z,91.60
2019-02-18T15:00:44.786Z,91.77
2019-02-18T15:03:32.108Z,88.10
2019-02-18T15:06:17.789Z,88.30
2019-02-18T15:09:03.920Z,85.33
2019-02-18T15:11:49.072Z,82.83
2019-02-18T15:14:34.569Z,83.50
2019-02-18T15:17:20.002Z,85.13
2019-02-18T15:20:08.863Z,86.83
2019-02-18T15:22:54.169Z,88.83
2019-02-18T15:25:40.164Z,90.13
2019-02-18T15:28:25.550Z,80.90
2019-02-18T15:31:10.636Z,81.37
2019-02-18T15:33:55.868Z,97.77
2019-02-18T15:36:41.670Z,88.37
2019-02-18T15:39:27.374Z,85.07
2019-02-18T15:42:13.012Z,88.07
2019-02-18T15:44:58.378Z,87.13
2019-02-18T15:47:44.178Z,89.00
2019-02-18T15:50:30.049Z,90.30
2019-02-18T15:53:16.156Z,90.17
2019-02-18T15:56:02.349Z,91.50
2019-02-18T15:58:48.125Z,97.77
2019-02-18T16:01:35.249Z,93.07
2019-02-18T16:04:20.717Z,93.20
2019-02-18T16:07:06.061Z,97.43
2019-02-18T16:09:52.969Z,96.10
2019-02-18T16:12:38.440Z,95.67
2019-02-18T16:15:23.497Z,97.20
2019-02-18T16:18:08.457Z,93.93
2019-02-18T16:20:53.822Z,102.27
2019-02-18T16:23:39.163Z,105.43
2019-02-18T16:26:24.372Z,107.77
2019-02-18T16:29:09.693Z,106.03
2019-02-18T16:31:54.928Z,104.60
2019-02-18T16:34:42.050Z,101.70
2019-02-18T16:37:27.989Z,111.97
2019-02-18T16:40:17.218Z,107.17
2019-02-18T16:43:02.256Z,110.40
2019-02-18T16:45:47.489Z,100.53
2019-02-18T16:48:33.062Z,118.90
2019-02-18T16:51:21.770Z,118.50
2019-02-18T16:54:07.035Z,122.23
2019-02-18T16:56:52.230Z,118.23
2019-02-18T16:59:37.726Z,220.77
2019-02-18T17:02:25.825Z,124.07
2019-02-18T17:05:10.891Z,117.27
2019-02-18T17:07:55.912Z,125.57
2019-02-18T17:10:42.914Z,130.47
2019-02-18T17:13:28.592Z,133.27
2019-02-18T17:16:14.078Z,132.97
2019-02-18T17:18:59.116Z,140.67
2019-02-18T17:21:45.627Z,149.37
2019-02-18T17:24:31.434Z,148.47
2019-02-18T17:27:16.682Z,134.40
2019-02-18T17:30:02.064Z,133.07
2019-02-18T17:32:47.667Z,120.20
2019-02-18T17:35:32.940Z,134.23
2019-02-18T17:38:19.194Z,127.90
2019-02-18T17:41:04.686Z,125.93
2019-02-18T17:43:50.294Z,136.30
2019-02-18T17:46:35.132Z,137.90
2019-02-18T17:49:20.010Z,141.77
2019-02-18T17:52:05.423Z,144.30
2019-02-18T17:54:50.593Z,136.23
2019-02-18T17:57:36.023Z,144.70
2019-02-18T18:00:32.064Z,142.27
2019-02-18T18:03:17.713Z,156.33
2019-02-18T18:06:03.220Z,154.70
2019-02-18T18:08:48.481Z,150.27
2019-02-18T18:11:34.135Z,147.93
2019-02-18T18:14:19.464Z,145.77
2019-02-18T18:17:04.852Z,150.67
2019-02-18T18:19:50.944Z,149.77
2019-02-18T18:22:35.903Z,166.90
2019-02-18T18:25:21.368Z,166.60
2019-02-18T18:28:07.170Z,166.20
2019-02-18T18:30:52.118Z,166.10
2019-02-18T18:33:37.755Z,169.33
2019-02-18T18:36:22.801Z,169.07
2019-02-18T18:39:08.078Z,171.23
2019-02-18T18:41:53.194Z,176.57
2019-02-18T18:44:38.465Z,177.87
2019-02-18T18:47:23.787Z,177.40
2019-02-18T18:50:14.901Z,169.63
2019-02-18T18:53:00.349Z,182.03
2019-02-18T18:55:46.020Z,189.83
2019-02-18T18:58:31.086Z,187.47
2019-02-18T19:01:16.260Z,189.07
2019-02-18T19:04:01.462Z,193.83
2019-02-18T19:06:46.749Z,198.37
2019-02-18T19:09:31.897Z,205.27
2019-02-18T19:12:17.136Z,211.57
2019-02-18T19:15:03.453Z,215.70
2019-02-18T19:17:48.925Z,215.53
2019-02-18T19:20:34.185Z,209.83
2019-02-18T19:23:19.300Z,197.60
2019-02-18T19:26:04.663Z,234.40
2019-02-18T19:28:50.468Z,243.47
2019-02-18T19:31:37.175Z,205.50
2019-02-18T19:34:22.560Z,207.00
2019-02-18T19:37:07.722Z,203.17
2019-02-18T19:39:52.925Z,201.83
2019-02-18T19:42:40.724Z,203.33
2019-02-18T19:45:25.906Z,206.37
2019-02-18T19:48:10.923Z,213.27
2019-02-18T19:50:56.294Z,201.30
2019-02-18T19:53:41.958Z,209.87
2019-02-18T19:56:27.346Z,201.33
2019-02-18T19:59:12.534Z,226.33
2019-02-18T20:01:57.564Z,230.50
2019-02-18T20:04:42.797Z,233.93
2019-02-18T20:07:29.198Z,221.13
2019-02-18T20:10:15.490Z,235.57
2019-02-18T20:13:00.228Z,448.83
2019-02-18T20:15:45.061Z,238.80
2019-02-18T20:18:30.297Z,218.03
2019-02-18T20:21:16.627Z,205.33
2019-02-18T20:24:03.166Z,214.20
2019-02-18T20:26:48.534Z,225.07
2019-02-18T20:29:33.697Z,245.13
2019-02-18T20:32:19.290Z,276.00
2019-02-18T20:35:05.740Z,281.23
2019-02-18T20:37:51.340Z,241.87
2019-02-18T20:40:36.713Z,235.57
2019-02-18T20:43:22.448Z,258.07
2019-02-18T20:46:07.845Z,283.80
2019-02-18T20:48:53.213Z,273.70
2019-02-18T20:51:38.997Z,307.90
2019-02-18T20:54:24.529Z,304.80
2019-02-18T20:57:09.422Z,297.57
2019-02-18T20:59:54.750Z,415.87
2019-02-18T21:02:40.958Z,309.63
2019-02-18T21:05:26.125Z,295.90
2019-02-18T21:08:11.500Z,265.77
2019-02-18T21:10:56.703Z,263.93
2019-02-18T21:13:42.080Z,262.53
2019-02-18T21:16:27.300Z,264.57
2019-02-18T21:19:12.545Z,273.40
2019-02-18T21:21:59.313Z,267.03
2019-02-18T21:24:44.711Z,261.70
2019-02-18T21:27:29.572Z,304.83
2019-02-18T21:30:15.991Z,317.40
2019-02-18T21:33:01.427Z,347.27
2019-02-18T21:35:46.506Z,330.17
2019-02-18T21:38:32.040Z,346.17
2019-02-18T21:41:17.316Z,818.37
2019-02-18T21:44:02.443Z,469.70
2019-02-18T21:46:48.105Z,366.97
2019-02-18T21:49:35.406Z,353.90
2019-02-18T21:52:21.058Z,359.97
2019-02-18T21:55:29.142Z,356.70
2019-02-18T21:58:14.744Z,312.63
2019-02-18T22:01:00.167Z,311.60
2019-02-18T22:03:45.465Z,300.20
2019-02-18T22:06:30.685Z,301.97
2019-02-18T22:09:15.942Z,274.60
2019-02-18T22:12:03.273Z,286.07
2019-02-18T22:14:48.599Z,300.33
2019-02-18T22:17:34.257Z,432.30
2019-02-18T22:20:20.927Z,679.07
2019-02-18T22:23:05.884Z,586.27
2019-02-18T22:25:52.672Z,534.87
2019-02-18T22:28:37.875Z,442.43
2019-02-18T22:31:23.342Z,461.87
2019-02-18T22:34:08.573Z,497.37
2019-02-18T22:36:54.215Z,430.20
2019-02-18T22:39:39.608Z,386.93
2019-02-18T22:42:25.316Z,438.33
2019-02-18T22:45:11.119Z,416.40
2019-02-18T22:47:56.458Z,414.67
2019-02-18T22:50:43.079Z,369.77
2019-02-18T22:53:28.925Z,372.10
2019-02-18T22:56:14.767Z,384.13
2019-02-18T22:58:59.854Z,374.47
2019-02-18T23:01:45.198Z,351.60
2019-02-18T23:04:30.632Z,335.93
2019-02-18T23:07:15.613Z,350.27
2019-02-18T23:10:00.869Z,341.00
2019-02-18T23:12:46.026Z,443.13
2019-02-18T23:15:31.818Z,338.47
2019-02-18T23:18:17.304Z,333.37
2019-02-18T23:21:02.490Z,343.90
2019-02-18T23:23:47.926Z,344.97
2019-02-18T23:26:33.238Z,324.83
2019-02-18T23:29:18.244Z,317.37
2019-02-18T23:32:04.773Z,344.97
2019-02-18T23:34:49.992Z,324.57
2019-02-18T23:37:35.201Z,320.73
2019-02-18T23:40:20.672Z,320.80
2019-02-18T23:43:05.840Z,333.40
2019-02-18T23:45:51.348Z,313.57
2019-02-18T23:48:36.870Z,326.03
2019-02-18T23:51:23.546Z,321.93
2019-02-18T23:54:08.684Z,314.57
2019-02-18T23:56:55.745Z,323.37
2019-02-18T23:59:41.021Z,335.23
